sensor_id;sensor_type;location;lat;lon;timestamp;P1;durP1;ratioP1;P2;durP2;ratioP2
13685;SDS011;6915;48.296;8.874;2023-04-23T01:45:01;2.97;;;2.33;;
13685;SDS011;6915;48.296;8.874;2023-04-23T01:47:32;3.63;;;2.10;;
13685;SDS011;6915;48.296;8.874;2023-04-23T01:50:01;4.27;;;2.50;;
13685;SDS011;6915;48.296;8.874;2023-04-23T01:52:31;2.43;;;2.23;;
13685;SDS011;6915;48.296;8.874;2023-04-23T01:55:00;5.20;;;2.43;;
13685;SDS011;6915;48.296;8.874;2023-04-23T01:57:29;4.13;;;2.03;;
13685;SDS011;6915;48.296;8.874;2023-04-23T02:00:00;2.43;;;2.10;;
13685;SDS011;6915;48.296;8.874;2023-04-23T02:02:32;2.20;;;2.00;;
13685;SDS011;6915;48.296;8.874;2023-04-23T02:05:01;2.93;;;2.10;;
13685;SDS011;6915;48.296;8.874;2023-04-23T02:07:35;4.17;;;2.33;;
13685;SDS011;6915;48.296;8.874;2023-04-23T02:10:04;2.87;;;2.30;;
13685;SDS011;6915;48.296;8.874;2023-04-23T02:12:35;2.30;;;2.10;;
13685;SDS011;6915;48.296;8.874;2023-04-23T02:15:06;2.30;;;1.80;;
13685;SDS011;6915;48.296;8.874;2023-04-23T02:17:37;2.17;;;2.00;;
13685;SDS011;6915;48.296;8.874;2023-04-23T02:20:06;2.13;;;1.73;;
13685;SDS011;6915;48.296;8.874;2023-04-23T02:22:36;1.60;;;1.50;;
13685;SDS011;6915;48.296;8.874;2023-04-23T02:25:06;2.17;;;1.50;;
13685;SDS011;6915;48.296;8.874;2023-04-23T02:27:36;1.80;;;1.40;;
13685;SDS011;6915;48.296;8.874;2023-04-23T02:30:07;4.90;;;1.20;;
13685;SDS011;6915;48.296;8.874;2023-04-23T02:32:37;1.87;;;1.40;;
13685;SDS011;6915;48.296;8.874;2023-04-23T02:35:07;1.60;;;1.33;;
13685;SDS011;6915;48.296;8.874;2023-04-23T02:37:36;1.33;;;0.90;;
13685;SDS011;6915;48.296;8.874;2023-04-23T02:40:06;1.93;;;1.20;;
13685;SDS011;6915;48.296;8.874;2023-04-23T02:42:38;1.93;;;1.07;;
13685;SDS011;6915;48.296;8.874;2023-04-23T02:45:08;2.27;;;1.20;;
13685;SDS011;6915;48.296;8.874;2023-04-23T02:47:38;0.90;;;0.90;;
13685;SDS011;6915;48.296;8.874;2023-04-23T02:50:08;1.40;;;0.90;;
13685;SDS011;6915;48.296;8.874;2023-04-23T02:52:37;1.43;;;0.90;;
13685;SDS011;6915;48.296;8.874;2023-04-23T02:55:06;1.37;;;1.00;;
13685;SDS011;6915;48.296;8.874;2023-04-23T02:57:35;1.53;;;1.00;;
13685;SDS011;6915;48.296;8.874;2023-04-23T03:00:04;3.20;;;0.80;;
13685;SDS011;6915;48.296;8.874;2023-04-23T03:02:37;0.87;;;0.80;;
13685;SDS011;6915;48.296;8.874;2023-04-23T03:05:06;1.53;;;0.80;;
13685;SDS011;6915;48.296;8.874;2023-04-23T03:07:36;2.00;;;0.77;;
13685;SDS011;6915;48.296;8.874;2023-04-23T03:10:06;1.37;;;0.80;;
13685;SDS011;6915;48.296;8.874;2023-04-23T03:12:36;0.60;;;0.60;;
13685;SDS011;6915;48.296;8.874;2023-04-23T03:15:07;1.33;;;0.83;;
13685;SDS011;6915;48.296;8.874;2023-04-23T03:17:38;1.10;;;0.60;;
13685;SDS011;6915;48.296;8.874;2023-04-23T03:20:07;0.80;;;0.70;;
13685;SDS011;6915;48.296;8.874;2023-04-23T03:22:36;0.77;;;0.77;;
13685;SDS011;6915;48.296;8.874;2023-04-23T03:25:05;1.43;;;0.90;;
13685;SDS011;6915;48.296;8.874;2023-04-23T03:27:34;0.60;;;0.60;;
13685;SDS011;6915;48.296;8.874;2023-04-23T03:30:04;1.37;;;0.67;;
13685;SDS011;6915;48.296;8.874;2023-04-23T03:32:32;1.40;;;0.67;;
13685;SDS011;6915;48.296;8.874;2023-04-23T03:35:02;2.33;;;0.90;;
13685;SDS011;6915;48.296;8.874;2023-04-23T03:37:33;0.53;;;0.53;;
13685;SDS011;6915;48.296;8.874;2023-04-23T03:40:02;0.90;;;0.67;;
13685;SDS011;6915;48.296;8.874;2023-04-23T03:42:32;0.50;;;0.50;;
13685;SDS011;6915;48.296;8.874;2023-04-23T03:45:01;2.43;;;0.60;;
13685;SDS011;6915;48.296;8.874;2023-04-23T03:47:28;0.60;;;0.60;;
13685;SDS011;6915;48.296;8.874;2023-04-23T03:49:57;1.80;;;0.60;;
13685;SDS011;6915;48.296;8.874;2023-04-23T03:52:27;0.90;;;0.60;;
13685;SDS011;6915;48.296;8.874;2023-04-23T03:54:56;0.80;;;0.60;;
13685;SDS011;6915;48.296;8.874;2023-04-23T03:57:24;0.70;;;0.47;;
13685;SDS011;6915;48.296;8.874;2023-04-23T03:59:53;1.47;;;0.50;;
13685;SDS011;6915;48.296;8.874;2023-04-23T04:02:22;0.40;;;0.40;;
13685;SDS011;6915;48.296;8.874;2023-04-23T04:04:50;1.37;;;0.50;;
13685;SDS011;6915;48.296;8.874;2023-04-23T04:07:20;0.40;;;0.40;;
13685;SDS011;6915;48.296;8.874;2023-04-23T04:09:51;0.87;;;0.50;;
13685;SDS011;6915;48.296;8.874;2023-04-23T04:12:19;1.03;;;0.50;;
13685;SDS011;6915;48.296;8.874;2023-04-23T04:14:48;0.93;;;0.60;;
13685;SDS011;6915;48.296;8.874;2023-04-23T04:17:16;1.17;;;0.50;;
13685;SDS011;6915;48.296;8.874;2023-04-23T04:19:45;0.87;;;0.40;;
13685;SDS011;6915;48.296;8.874;2023-04-23T04:22:14;0.60;;;0.50;;
13685;SDS011;6915;48.296;8.874;2023-04-23T04:24:42;1.23;;;0.50;;
13685;SDS011;6915;48.296;8.874;2023-04-23T04:27:12;0.40;;;0.40;;
13685;SDS011;6915;48.296;8.874;2023-04-23T04:29:42;0.33;;;0.30;;
13685;SDS011;6915;48.296;8.874;2023-04-23T04:32:10;1.10;;;0.53;;
13685;SDS011;6915;48.296;8.874;2023-04-23T04:34:39;1.47;;;0.40;;
13685;SDS011;6915;48.296;8.874;2023-04-23T04:37:10;0.40;;;0.40;;
13685;SDS011;6915;48.296;8.874;2023-04-23T04:39:39;0.40;;;0.40;;
13685;SDS011;6915;48.296;8.874;2023-04-23T04:42:08;0.50;;;0.50;;
13685;SDS011;6915;48.296;8.874;2023-04-23T04:44:38;0.57;;;0.40;;
13685;SDS011;6915;48.296;8.874;2023-04-23T04:47:08;1.70;;;0.60;;
13685;SDS011;6915;48.296;8.874;2023-04-23T04:49:37;0.53;;;0.50;;
13685;SDS011;6915;48.296;8.874;2023-04-23T04:52:06;0.30;;;0.30;;
13685;SDS011;6915;48.296;8.874;2023-04-23T04:54:34;0.40;;;0.40;;
13685;SDS011;6915;48.296;8.874;2023-04-23T04:57:03;0.40;;;0.33;;
13685;SDS011;6915;48.296;8.874;2023-04-23T04:59:31;1.00;;;0.50;;
13685;SDS011;6915;48.296;8.874;2023-04-23T05:02:01;0.40;;;0.40;;
13685;SDS011;6915;48.296;8.874;2023-04-23T05:04:30;0.33;;;0.33;;
13685;SDS011;6915;48.296;8.874;2023-04-23T05:06:59;0.70;;;0.50;;
13685;SDS011;6915;48.296;8.874;2023-04-23T05:09:28;0.70;;;0.40;;
13685;SDS011;6915;48.296;8.874;2023-04-23T05:11:57;2.27;;;0.40;;
13685;SDS011;6915;48.296;8.874;2023-04-23T05:14:26;0.40;;;0.40;;
13685;SDS011;6915;48.296;8.874;2023-04-23T05:16:54;2.33;;;0.53;;
13685;SDS011;6915;48.296;8.874;2023-04-23T05:19:24;0.40;;;0.40;;
13685;SDS011;6915;48.296;8.874;2023-04-23T05:21:53;0.90;;;0.40;;
13685;SDS011;6915;48.296;8.874;2023-04-23T05:24:21;0.77;;;0.40;;
13685;SDS011;6915;48.296;8.874;2023-04-23T05:26:50;0.40;;;0.40;;
13685;SDS011;6915;48.296;8.874;2023-04-23T05:29:19;0.50;;;0.50;;
13685;SDS011;6915;48.296;8.874;2023-04-23T05:31:47;0.57;;;0.57;;
13685;SDS011;6915;48.296;8.874;2023-04-23T05:34:16;0.43;;;0.40;;
13685;SDS011;6915;48.296;8.874;2023-04-23T05:36:46;1.07;;;0.60;;
13685;SDS011;6915;48.296;8.874;2023-04-23T05:39:14;0.63;;;0.60;;
13685;SDS011;6915;48.296;8.874;2023-04-23T05:41:43;3.00;;;0.80;;
13685;SDS011;6915;48.296;8.874;2023-04-23T05:44:12;0.93;;;0.70;;
13685;SDS011;6915;48.296;8.874;2023-04-23T05:46:40;1.40;;;1.20;;
13685;SDS011;6915;48.296;8.874;2023-04-23T05:49:09;4.00;;;3.23;;
13685;SDS011;6915;48.296;8.874;2023-04-23T05:51:37;1.77;;;1.50;;
13685;SDS011;6915;48.296;8.874;2023-04-23T05:54:07;1.97;;;1.43;;
13685;SDS011;6915;48.296;8.874;2023-04-23T05:56:36;2.50;;;1.10;;
13685;SDS011;6915;48.296;8.874;2023-04-23T05:59:05;1.70;;;1.00;;
13685;SDS011;6915;48.296;8.874;2023-04-23T06:01:37;0.90;;;0.90;;
13685;SDS011;6915;48.296;8.874;2023-04-23T06:04:06;1.73;;;0.87;;
13685;SDS011;6915;48.296;8.874;2023-04-23T06:06:34;2.30;;;1.00;;
13685;SDS011;6915;48.296;8.874;2023-04-23T06:09:03;0.90;;;0.70;;
13685;SDS011;6915;48.296;8.874;2023-04-23T06:11:34;2.60;;;0.77;;
13685;SDS011;6915;48.296;8.874;2023-04-23T06:14:03;1.07;;;0.97;;
13685;SDS011;6915;48.296;8.874;2023-04-23T06:16:32;1.83;;;0.70;;
13685;SDS011;6915;48.296;8.874;2023-04-23T06:19:01;1.03;;;0.90;;
13685;SDS011;6915;48.296;8.874;2023-04-23T06:21:30;0.93;;;0.70;;
13685;SDS011;6915;48.296;8.874;2023-04-23T06:23:59;2.43;;;1.87;;
13685;SDS011;6915;48.296;8.874;2023-04-23T06:26:30;1.10;;;0.73;;
13685;SDS011;6915;48.296;8.874;2023-04-23T06:29:00;0.80;;;0.63;;
13685;SDS011;6915;48.296;8.874;2023-04-23T06:31:29;2.00;;;0.63;;
13685;SDS011;6915;48.296;8.874;2023-04-23T06:33:58;1.23;;;0.67;;
13685;SDS011;6915;48.296;8.874;2023-04-23T06:36:27;0.97;;;0.80;;
13685;SDS011;6915;48.296;8.874;2023-04-23T06:38:56;0.70;;;0.70;;
13685;SDS011;6915;48.296;8.874;2023-04-23T06:41:25;0.73;;;0.60;;
13685;SDS011;6915;48.296;8.874;2023-04-23T06:43:54;0.97;;;0.50;;
13685;SDS011;6915;48.296;8.874;2023-04-23T06:46:24;0.60;;;0.60;;
13685;SDS011;6915;48.296;8.874;2023-04-23T06:48:53;1.20;;;0.70;;
13685;SDS011;6915;48.296;8.874;2023-04-23T06:51:23;0.70;;;0.40;;
13685;SDS011;6915;48.296;8.874;2023-04-23T06:53:53;0.93;;;0.60;;
13685;SDS011;6915;48.296;8.874;2023-04-23T06:56:22;0.80;;;0.50;;
13685;SDS011;6915;48.296;8.874;2023-04-23T06:58:52;1.17;;;0.47;;
13685;SDS011;6915;48.296;8.874;2023-04-23T07:01:20;0.43;;;0.43;;
13685;SDS011;6915;48.296;8.874;2023-04-23T07:03:51;0.50;;;0.50;;
13685;SDS011;6915;48.296;8.874;2023-04-23T07:06:20;0.40;;;0.40;;
13685;SDS011;6915;48.296;8.874;2023-04-23T07:08:48;2.23;;;0.60;;
13685;SDS011;6915;48.296;8.874;2023-04-23T07:11:17;2.13;;;0.57;;
13685;SDS011;6915;48.296;8.874;2023-04-23T07:13:46;0.67;;;0.50;;
13685;SDS011;6915;48.296;8.874;2023-04-23T07:16:15;0.40;;;0.40;;
13685;SDS011;6915;48.296;8.874;2023-04-23T07:18:43;1.30;;;0.50;;
13685;SDS011;6915;48.296;8.874;2023-04-23T07:21:15;0.77;;;0.50;;
13685;SDS011;6915;48.296;8.874;2023-04-23T07:28:52;0.80;;;0.73;;
13685;SDS011;6915;48.296;8.874;2023-04-23T07:31:21;0.57;;;0.50;;
13685;SDS011;6915;48.296;8.874;2023-04-23T07:33:50;0.50;;;0.50;;
13685;SDS011;6915;48.296;8.874;2023-04-23T07:36:20;0.80;;;0.60;;
13685;SDS011;6915;48.296;8.874;2023-04-23T07:38:49;1.00;;;0.60;;
13685;SDS011;6915;48.296;8.874;2023-04-23T07:54:16;1.87;;;0.60;;
13685;SDS011;6915;48.296;8.874;2023-04-23T07:56:45;0.50;;;0.50;;
13685;SDS011;6915;48.296;8.874;2023-04-23T07:59:14;1.10;;;0.50;;
13685;SDS011;6915;48.296;8.874;2023-04-23T08:01:43;0.73;;;0.50;;
13685;SDS011;6915;48.296;8.874;2023-04-23T08:04:12;0.53;;;0.53;;
13685;SDS011;6915;48.296;8.874;2023-04-23T08:06:40;1.50;;;0.60;;
13685;SDS011;6915;48.296;8.874;2023-04-23T08:09:09;0.60;;;0.50;;
13685;SDS011;6915;48.296;8.874;2023-04-23T08:11:39;0.80;;;0.70;;
13685;SDS011;6915;48.296;8.874;2023-04-23T08:14:08;1.33;;;0.70;;
13685;SDS011;6915;48.296;8.874;2023-04-23T08:16:37;1.03;;;0.70;;
13685;SDS011;6915;48.296;8.874;2023-04-23T08:19:05;0.83;;;0.63;;
13685;SDS011;6915;48.296;8.874;2023-04-23T08:21:34;1.20;;;0.60;;
13685;SDS011;6915;48.296;8.874;2023-04-23T08:24:04;0.80;;;0.53;;
13685;SDS011;6915;48.296;8.874;2023-04-23T08:26:33;1.03;;;0.60;;
13685;SDS011;6915;48.296;8.874;2023-04-23T08:29:04;0.67;;;0.63;;
13685;SDS011;6915;48.296;8.874;2023-04-23T08:31:33;1.43;;;0.57;;
13685;SDS011;6915;48.296;8.874;2023-04-23T08:34:01;1.43;;;0.87;;
13685;SDS011;6915;48.296;8.874;2023-04-23T08:36:30;1.33;;;0.60;;
13685;SDS011;6915;48.296;8.874;2023-04-23T08:38:59;0.80;;;0.80;;
13685;SDS011;6915;48.296;8.874;2023-04-23T08:41:29;1.50;;;0.90;;
13685;SDS011;6915;48.296;8.874;2023-04-23T08:44:11;1.67;;;0.77;;
13685;SDS011;6915;48.296;8.874;2023-04-23T08:46:43;1.50;;;0.77;;
13685;SDS011;6915;48.296;8.874;2023-04-23T08:49:15;0.80;;;0.80;;
13685;SDS011;6915;48.296;8.874;2023-04-23T08:51:46;0.90;;;0.60;;
13685;SDS011;6915;48.296;8.874;2023-04-23T08:54:18;1.53;;;0.80;;
13685;SDS011;6915;48.296;8.874;2023-04-23T08:56:51;0.87;;;0.80;;
13685;SDS011;6915;48.296;8.874;2023-04-23T08:59:22;0.93;;;0.60;;
13685;SDS011;6915;48.296;8.874;2023-04-23T09:01:52;0.98;;;0.65;;
13685;SDS011;6915;48.296;8.874;2023-04-23T09:04:25;0.60;;;0.60;;
13685;SDS011;6915;48.296;8.874;2023-04-23T09:06:56;0.95;;;0.90;;
13685;SDS011;6915;48.296;8.874;2023-04-23T09:09:25;0.50;;;0.50;;
13685;SDS011;6915;48.296;8.874;2023-04-23T09:11:58;0.77;;;0.60;;
13685;SDS011;6915;48.296;8.874;2023-04-23T09:14:28;0.70;;;0.60;;
13685;SDS011;6915;48.296;8.874;2023-04-23T09:16:57;1.15;;;0.73;;
13685;SDS011;6915;48.296;8.874;2023-04-23T09:19:27;0.60;;;0.60;;
13685;SDS011;6915;48.296;8.874;2023-04-23T09:21:56;0.70;;;0.70;;
13685;SDS011;6915;48.296;8.874;2023-04-23T09:24:26;1.02;;;0.68;;
13685;SDS011;6915;48.296;8.874;2023-04-23T09:26:56;0.77;;;0.70;;
13685;SDS011;6915;48.296;8.874;2023-04-23T09:29:25;0.67;;;0.63;;
13685;SDS011;6915;48.296;8.874;2023-04-23T09:31:57;1.07;;;0.53;;
13685;SDS011;6915;48.296;8.874;2023-04-23T09:34:33;1.20;;;0.80;;
13685;SDS011;6915;48.296;8.874;2023-04-23T09:37:03;0.77;;;0.75;;
13685;SDS011;6915;48.296;8.874;2023-04-23T09:39:35;0.57;;;0.57;;
13685;SDS011;6915;48.296;8.874;2023-04-23T09:42:04;2.00;;;0.80;;
13685;SDS011;6915;48.296;8.874;2023-04-23T09:44:35;0.83;;;0.80;;
13685;SDS011;6915;48.296;8.874;2023-04-23T09:47:08;1.57;;;0.70;;
13685;SDS011;6915;48.296;8.874;2023-04-23T09:57:19;0.85;;;0.65;;
13685;SDS011;6915;48.296;8.874;2023-04-23T09:59:52;0.63;;;0.63;;
13685;SDS011;6915;48.296;8.874;2023-04-23T10:02:26;0.60;;;0.60;;
13685;SDS011;6915;48.296;8.874;2023-04-23T10:04:57;2.20;;;0.68;;
13685;SDS011;6915;48.296;8.874;2023-04-23T10:07:26;1.17;;;0.90;;
13685;SDS011;6915;48.296;8.874;2023-04-23T10:09:56;0.75;;;0.68;;
13685;SDS011;6915;48.296;8.874;2023-04-23T10:12:25;1.02;;;0.70;;
13685;SDS011;6915;48.296;8.874;2023-04-23T10:14:54;1.33;;;0.85;;
13685;SDS011;6915;48.296;8.874;2023-04-23T10:17:23;0.70;;;0.70;;
13685;SDS011;6915;48.296;8.874;2023-04-23T10:19:53;0.68;;;0.68;;
13685;SDS011;6915;48.296;8.874;2023-04-23T10:22:23;0.60;;;0.55;;
13685;SDS011;6915;48.296;8.874;2023-04-23T10:24:56;0.60;;;0.60;;
13685;SDS011;6915;48.296;8.874;2023-04-23T10:27:26;0.63;;;0.63;;
13685;SDS011;6915;48.296;8.874;2023-04-23T10:29:56;1.00;;;0.80;;
13685;SDS011;6915;48.296;8.874;2023-04-23T10:32:25;0.73;;;0.70;;
13685;SDS011;6915;48.296;8.874;2023-04-23T10:34:57;0.88;;;0.80;;
13685;SDS011;6915;48.296;8.874;2023-04-23T10:37:26;1.13;;;0.75;;
13685;SDS011;6915;48.296;8.874;2023-04-23T10:39:57;0.70;;;0.52;;
13685;SDS011;6915;48.296;8.874;2023-04-23T10:42:29;0.70;;;0.70;;
13685;SDS011;6915;48.296;8.874;2023-04-23T10:44:58;0.75;;;0.75;;
13685;SDS011;6915;48.296;8.874;2023-04-23T10:47:26;0.45;;;0.40;;
13685;SDS011;6915;48.296;8.874;2023-04-23T10:49:56;0.65;;;0.60;;
13685;SDS011;6915;48.296;8.874;2023-04-23T10:52:43;0.50;;;0.50;;
13685;SDS011;6915;48.296;8.874;2023-04-23T10:55:15;0.60;;;0.43;;
13685;SDS011;6915;48.296;8.874;2023-04-23T10:57:55;0.57;;;0.50;;
13685;SDS011;6915;48.296;8.874;2023-04-23T11:00:27;0.70;;;0.50;;
13685;SDS011;6915;48.296;8.874;2023-04-23T11:03:28;0.60;;;0.60;;
13685;SDS011;6915;48.296;8.874;2023-04-23T11:06:05;1.40;;;0.60;;
13685;SDS011;6915;48.296;8.874;2023-04-23T11:42:30;1.33;;;0.65;;
13685;SDS011;6915;48.296;8.874;2023-04-23T11:45:06;1.10;;;0.85;;
13685;SDS011;6915;48.296;8.874;2023-04-23T11:47:39;2.17;;;0.90;;
13685;SDS011;6915;48.296;8.874;2023-04-23T11:50:09;1.13;;;0.80;;
13685;SDS011;6915;48.296;8.874;2023-04-23T11:52:42;1.48;;;0.85;;
13685;SDS011;6915;48.296;8.874;2023-04-23T11:55:11;5.30;;;0.80;;
13685;SDS011;6915;48.296;8.874;2023-04-23T11:57:42;0.75;;;0.70;;
13685;SDS011;6915;48.296;8.874;2023-04-23T12:00:13;2.53;;;0.80;;
13685;SDS011;6915;48.296;8.874;2023-04-23T12:02:52;2.83;;;0.90;;
13685;SDS011;6915;48.296;8.874;2023-04-23T12:05:30;1.92;;;0.73;;
13685;SDS011;6915;48.296;8.874;2023-04-23T12:08:07;1.83;;;0.77;;
13685;SDS011;6915;48.296;8.874;2023-04-23T12:10:40;1.92;;;1.00;;
13685;SDS011;6915;48.296;8.874;2023-04-23T12:13:16;3.97;;;1.00;;
13685;SDS011;6915;48.296;8.874;2023-04-23T12:15:47;2.38;;;0.98;;
13685;SDS011;6915;48.296;8.874;2023-04-23T12:18:17;2.55;;;1.00;;
13685;SDS011;6915;48.296;8.874;2023-04-23T12:20:46;2.25;;;0.90;;
13685;SDS011;6915;48.296;8.874;2023-04-23T12:23:15;2.22;;;1.00;;
13685;SDS011;6915;48.296;8.874;2023-04-23T12:25:44;3.83;;;1.00;;
13685;SDS011;6915;48.296;8.874;2023-04-23T12:28:13;3.35;;;1.10;;
13685;SDS011;6915;48.296;8.874;2023-04-23T12:30:43;1.65;;;0.90;;
13685;SDS011;6915;48.296;8.874;2023-04-23T12:33:12;1.55;;;0.80;;
13685;SDS011;6915;48.296;8.874;2023-04-23T12:35:43;2.33;;;0.95;;
13685;SDS011;6915;48.296;8.874;2023-04-23T12:38:22;1.50;;;1.05;;
13685;SDS011;6915;48.296;8.874;2023-04-23T12:40:51;1.98;;;1.20;;
13685;SDS011;6915;48.296;8.874;2023-04-23T12:43:21;2.40;;;1.20;;
13685;SDS011;6915;48.296;8.874;2023-04-23T12:45:52;2.33;;;1.15;;
13685;SDS011;6915;48.296;8.874;2023-04-23T12:48:22;3.13;;;1.40;;
13685;SDS011;6915;48.296;8.874;2023-04-23T12:50:50;1.27;;;1.10;;
13685;SDS011;6915;48.296;8.874;2023-04-23T12:53:22;3.42;;;1.38;;
13685;SDS011;6915;48.296;8.874;2023-04-23T12:55:51;1.98;;;1.20;;
13685;SDS011;6915;48.296;8.874;2023-04-23T12:58:20;2.80;;;1.13;;
13685;SDS011;6915;48.296;8.874;2023-04-23T13:00:50;2.17;;;1.35;;
13685;SDS011;6915;48.296;8.874;2023-04-23T13:03:20;3.33;;;1.25;;
13685;SDS011;6915;48.296;8.874;2023-04-23T13:05:48;1.30;;;1.15;;
13685;SDS011;6915;48.296;8.874;2023-04-23T13:08:17;4.13;;;1.10;;
13685;SDS011;6915;48.296;8.874;2023-04-23T13:10:46;2.88;;;1.27;;
13685;SDS011;6915;48.296;8.874;2023-04-23T13:13:15;2.67;;;1.60;;
13685;SDS011;6915;48.296;8.874;2023-04-23T13:15:43;3.38;;;1.48;;
13685;SDS011;6915;48.296;8.874;2023-04-23T13:18:12;2.05;;;1.02;;
13685;SDS011;6915;48.296;8.874;2023-04-23T13:20:42;1.95;;;1.08;;
13685;SDS011;6915;48.296;8.874;2023-04-23T13:23:11;2.35;;;1.17;;
13685;SDS011;6915;48.296;8.874;2023-04-23T13:25:40;2.88;;;1.20;;
13685;SDS011;6915;48.296;8.874;2023-04-23T13:28:09;3.58;;;1.13;;
13685;SDS011;6915;48.296;8.874;2023-04-23T13:30:38;2.65;;;1.40;;
13685;SDS011;6915;48.296;8.874;2023-04-23T13:33:06;2.67;;;1.13;;
13685;SDS011;6915;48.296;8.874;2023-04-23T13:35:35;2.17;;;1.00;;
13685;SDS011;6915;48.296;8.874;2023-04-23T13:38:06;1.30;;;1.08;;
13685;SDS011;6915;48.296;8.874;2023-04-23T13:40:35;1.27;;;1.17;;
13685;SDS011;6915;48.296;8.874;2023-04-23T13:43:04;2.03;;;1.10;;
13685;SDS011;6915;48.296;8.874;2023-04-23T13:45:32;1.88;;;1.10;;
13685;SDS011;6915;48.296;8.874;2023-04-23T13:48:02;1.33;;;1.23;;
13685;SDS011;6915;48.296;8.874;2023-04-23T13:50:32;2.15;;;1.10;;
13685;SDS011;6915;48.296;8.874;2023-04-23T13:53:02;3.03;;;0.95;;
13685;SDS011;6915;48.296;8.874;2023-04-23T13:55:33;3.80;;;1.10;;
13685;SDS011;6915;48.296;8.874;2023-04-23T13:58:02;2.15;;;1.13;;
13685;SDS011;6915;48.296;8.874;2023-04-23T14:00:32;3.00;;;1.23;;
13685;SDS011;6915;48.296;8.874;2023-04-23T14:03:01;2.40;;;1.13;;
13685;SDS011;6915;48.296;8.874;2023-04-23T14:05:29;2.03;;;1.15;;
13685;SDS011;6915;48.296;8.874;2023-04-23T14:07:58;2.08;;;1.10;;
13685;SDS011;6915;48.296;8.874;2023-04-23T14:10:27;4.20;;;1.38;;
13685;SDS011;6915;48.296;8.874;2023-04-23T14:12:58;1.75;;;0.93;;
13685;SDS011;6915;48.296;8.874;2023-04-23T14:15:27;1.48;;;1.17;;
13685;SDS011;6915;48.296;8.874;2023-04-23T14:17:56;1.55;;;0.90;;
13685;SDS011;6915;48.296;8.874;2023-04-23T14:20:25;1.52;;;1.20;;
13685;SDS011;6915;48.296;8.874;2023-04-23T14:22:55;2.25;;;1.02;;
13685;SDS011;6915;48.296;8.874;2023-04-23T14:25:28;1.65;;;1.00;;
13685;SDS011;6915;48.296;8.874;2023-04-23T14:28:15;1.60;;;1.25;;
13685;SDS011;6915;48.296;8.874;2023-04-23T14:30:54;2.55;;;1.13;;
13685;SDS011;6915;48.296;8.874;2023-04-23T14:33:23;2.90;;;1.20;;
13685;SDS011;6915;48.296;8.874;2023-04-23T14:35:51;1.15;;;0.90;;
13685;SDS011;6915;48.296;8.874;2023-04-23T14:38:20;4.28;;;1.10;;
13685;SDS011;6915;48.296;8.874;2023-04-23T14:40:50;1.70;;;1.15;;
13685;SDS011;6915;48.296;8.874;2023-04-23T14:43:21;2.70;;;1.10;;
13685;SDS011;6915;48.296;8.874;2023-04-23T14:45:50;1.02;;;0.80;;
13685;SDS011;6915;48.296;8.874;2023-04-23T14:48:19;2.92;;;1.30;;
13685;SDS011;6915;48.296;8.874;2023-04-23T14:50:47;3.35;;;1.20;;
13685;SDS011;6915;48.296;8.874;2023-04-23T14:53:16;2.03;;;1.00;;
13685;SDS011;6915;48.296;8.874;2023-04-23T14:55:45;2.08;;;1.10;;
13685;SDS011;6915;48.296;8.874;2023-04-23T14:58:17;2.13;;;1.17;;
13685;SDS011;6915;48.296;8.874;2023-04-23T15:00:47;2.60;;;1.27;;
13685;SDS011;6915;48.296;8.874;2023-04-23T15:03:16;1.27;;;1.17;;
13685;SDS011;6915;48.296;8.874;2023-04-23T15:05:46;2.00;;;1.27;;
13685;SDS011;6915;48.296;8.874;2023-04-23T15:08:17;2.00;;;1.30;;
13685;SDS011;6915;48.296;8.874;2023-04-23T15:10:48;2.20;;;1.00;;
13685;SDS011;6915;48.296;8.874;2023-04-23T15:13:29;1.52;;;1.30;;
13685;SDS011;6915;48.296;8.874;2023-04-23T15:16:07;5.72;;;1.50;;
13685;SDS011;6915;48.296;8.874;2023-04-23T15:18:43;3.50;;;1.48;;
13685;SDS011;6915;48.296;8.874;2023-04-23T15:21:12;3.00;;;1.30;;
13685;SDS011;6915;48.296;8.874;2023-04-23T15:23:41;2.25;;;1.13;;
13685;SDS011;6915;48.296;8.874;2023-04-23T15:26:09;3.80;;;1.35;;
13685;SDS011;6915;48.296;8.874;2023-04-23T15:28:38;3.28;;;1.40;;
13685;SDS011;6915;48.296;8.874;2023-04-23T15:31:09;1.88;;;1.20;;
13685;SDS011;6915;48.296;8.874;2023-04-23T15:33:38;2.42;;;1.10;;
13685;SDS011;6915;48.296;8.874;2023-04-23T15:36:06;1.73;;;1.00;;
13685;SDS011;6915;48.296;8.874;2023-04-23T15:38:35;7.00;;;1.55;;
13685;SDS011;6915;48.296;8.874;2023-04-23T15:41:04;1.60;;;0.80;;
13685;SDS011;6915;48.296;8.874;2023-04-23T15:43:33;2.13;;;1.20;;
13685;SDS011;6915;48.296;8.874;2023-04-23T15:46:02;2.30;;;0.97;;
13685;SDS011;6915;48.296;8.874;2023-04-23T15:48:32;0.83;;;0.50;;
13685;SDS011;6915;48.296;8.874;2023-04-23T15:51:01;1.27;;;0.60;;
13685;SDS011;6915;48.296;8.874;2023-04-23T15:53:30;1.53;;;0.63;;
13685;SDS011;6915;48.296;8.874;2023-04-23T15:55:59;1.03;;;0.60;;
13685;SDS011;6915;48.296;8.874;2023-04-23T15:58:28;1.23;;;0.40;;
13685;SDS011;6915;48.296;8.874;2023-04-23T16:00:57;4.13;;;0.60;;
13685;SDS011;6915;48.296;8.874;2023-04-23T16:03:27;3.50;;;0.60;;
13685;SDS011;6915;48.296;8.874;2023-04-23T16:05:57;0.50;;;0.50;;
13685;SDS011;6915;48.296;8.874;2023-04-23T16:08:26;1.90;;;0.47;;
13685;SDS011;6915;48.296;8.874;2023-04-23T16:10:56;0.80;;;0.53;;
13685;SDS011;6915;48.296;8.874;2023-04-23T16:13:25;1.17;;;0.63;;
13685;SDS011;6915;48.296;8.874;2023-04-23T16:15:54;1.13;;;0.53;;
13685;SDS011;6915;48.296;8.874;2023-04-23T16:18:23;4.97;;;0.60;;
13685;SDS011;6915;48.296;8.874;2023-04-23T16:20:51;4.00;;;0.60;;
13685;SDS011;6915;48.296;8.874;2023-04-23T16:23:22;1.57;;;0.60;;
13685;SDS011;6915;48.296;8.874;2023-04-23T16:25:51;0.70;;;0.60;;
13685;SDS011;6915;48.296;8.874;2023-04-23T16:28:21;1.03;;;0.60;;
13685;SDS011;6915;48.296;8.874;2023-04-23T16:30:50;0.83;;;0.60;;
13685;SDS011;6915;48.296;8.874;2023-04-23T16:33:18;1.40;;;0.70;;
13685;SDS011;6915;48.296;8.874;2023-04-23T16:35:47;0.93;;;0.40;;
13685;SDS011;6915;48.296;8.874;2023-04-23T16:38:16;1.83;;;0.70;;
13685;SDS011;6915;48.296;8.874;2023-04-23T16:40:47;0.60;;;0.60;;
13685;SDS011;6915;48.296;8.874;2023-04-23T16:43:15;1.73;;;0.50;;
13685;SDS011;6915;48.296;8.874;2023-04-23T16:45:44;0.70;;;0.70;;
13685;SDS011;6915;48.296;8.874;2023-04-23T16:48:14;0.63;;;0.53;;
13685;SDS011;6915;48.296;8.874;2023-04-23T16:50:43;1.83;;;0.60;;
13685;SDS011;6915;48.296;8.874;2023-04-23T16:53:12;2.13;;;0.70;;
13685;SDS011;6915;48.296;8.874;2023-04-23T16:55:41;1.13;;;0.70;;
13685;SDS011;6915;48.296;8.874;2023-04-23T16:58:11;1.77;;;1.00;;
13685;SDS011;6915;48.296;8.874;2023-04-23T17:00:41;1.60;;;0.80;;
13685;SDS011;6915;48.296;8.874;2023-04-23T17:03:11;0.97;;;0.60;;
13685;SDS011;6915;48.296;8.874;2023-04-23T17:05:41;1.40;;;0.63;;
13685;SDS011;6915;48.296;8.874;2023-04-23T17:08:13;2.37;;;1.37;;
13685;SDS011;6915;48.296;8.874;2023-04-23T17:10:42;1.50;;;1.40;;
13685;SDS011;6915;48.296;8.874;2023-04-23T17:13:12;5.30;;;2.27;;
13685;SDS011;6915;48.296;8.874;2023-04-23T17:15:41;2.27;;;1.73;;
13685;SDS011;6915;48.296;8.874;2023-04-23T17:18:10;1.13;;;0.90;;
13685;SDS011;6915;48.296;8.874;2023-04-23T17:20:39;2.30;;;0.80;;
13685;SDS011;6915;48.296;8.874;2023-04-23T17:23:07;3.97;;;2.07;;
13685;SDS011;6915;48.296;8.874;2023-04-23T20:26:13;0.33;;;0.30;;
13685;SDS011;6915;48.296;8.874;2023-04-23T20:28:42;0.40;;;0.40;;
13685;SDS011;6915;48.296;8.874;2023-04-23T20:31:12;1.40;;;0.73;;
13685;SDS011;6915;48.296;8.874;2023-04-23T20:33:41;1.03;;;0.47;;
13685;SDS011;6915;48.296;8.874;2023-04-23T20:36:09;0.50;;;0.50;;
